sensor_id;sensor_type;location;lat;lon;timestamp;temperature;humidity
64855;DHT22;51321;50.428;8.378;2023-10-13T00:02:07;15.70;99.90
64855;DHT22;51321;50.428;8.378;2023-10-13T00:04:49;15.80;99.90
64855;DHT22;51321;50.428;8.378;2023-10-13T00:07:30;15.80;99.90
64855;DHT22;51321;50.428;8.378;2023-10-13T00:10:11;15.70;99.90
64855;DHT22;51321;50.428;8.378;2023-10-13T00:12:54;15.70;99.90
64855;DHT22;51321;50.428;8.378;2023-10-13T00:15:46;15.70;99.90
64855;DHT22;51321;50.428;8.378;2023-10-13T00:18:36;15.70;99.90
64855;DHT22;51321;50.428;8.378;2023-10-13T00:21:21;15.70;99.90
64855;DHT22;51321;50.428;8.378;2023-10-13T00:24:10;15.70;99.90
64855;DHT22;51321;50.428;8.378;2023-10-13T00:26:53;15.80;99.90
64855;DHT22;51321;50.428;8.378;2023-10-13T00:29:36;15.70;99.90
64855;DHT22;51321;50.428;8.378;2023-10-13T00:32:18;15.70;99.90
64855;DHT22;51321;50.428;8.378;2023-10-13T00:35:06;15.80;99.90
64855;DHT22;51321;50.428;8.378;2023-10-13T00:37:54;15.70;99.90
64855;DHT22;51321;50.428;8.378;2023-10-13T00:40:36;15.80;99.90
64855;DHT22;51321;50.428;8.378;2023-10-13T00:43:23;15.80;99.90
64855;DHT22;51321;50.428;8.378;2023-10-13T00:46:15;15.90;99.90
64855;DHT22;51321;50.428;8.378;2023-10-13T00:48:59;15.80;99.90
64855;DHT22;51321;50.428;8.378;2023-10-13T00:51:39;15.80;99.90
64855;DHT22;51321;50.428;8.378;2023-10-13T00:54:26;15.80;99.90
64855;DHT22;51321;50.428;8.378;2023-10-13T00:57:07;15.80;99.90
64855;DHT22;51321;50.428;8.378;2023-10-13T00:59:51;15.80;99.90
64855;DHT22;51321;50.428;8.378;2023-10-13T01:02:35;15.80;99.90
64855;DHT22;51321;50.428;8.378;2023-10-13T01:05:19;15.80;99.90
64855;DHT22;51321;50.428;8.378;2023-10-13T01:08:00;15.80;99.90
64855;DHT22;51321;50.428;8.378;2023-10-13T01:10:41;15.80;99.90
64855;DHT22;51321;50.428;8.378;2023-10-13T01:13:22;15.80;99.90
64855;DHT22;51321;50.428;8.378;2023-10-13T01:16:04;15.90;99.90
64855;DHT22;51321;50.428;8.378;2023-10-13T01:18:48;15.80;99.90
64855;DHT22;51321;50.428;8.378;2023-10-13T01:21:29;15.80;99.90
64855;DHT22;51321;50.428;8.378;2023-10-13T01:24:11;15.80;99.90
64855;DHT22;51321;50.428;8.378;2023-10-13T01:27:02;15.80;99.90
64855;DHT22;51321;50.428;8.378;2023-10-13T01:29:58;15.90;99.90
64855;DHT22;51321;50.428;8.378;2023-10-13T01:32:46;15.90;99.90
64855;DHT22;51321;50.428;8.378;2023-10-13T01:35:31;15.80;99.90
64855;DHT22;51321;50.428;8.378;2023-10-13T01:38:26;15.80;99.90
64855;DHT22;51321;50.428;8.378;2023-10-13T01:41:11;15.90;99.90
64855;DHT22;51321;50.428;8.378;2023-10-13T01:43:54;15.90;99.90
64855;DHT22;51321;50.428;8.378;2023-10-13T01:46:38;15.90;99.90
64855;DHT22;51321;50.428;8.378;2023-10-13T01:49:21;15.90;99.90
64855;DHT22;51321;50.428;8.378;2023-10-13T01:52:02;16.00;99.90
64855;DHT22;51321;50.428;8.378;2023-10-13T01:54:43;16.00;99.90
64855;DHT22;51321;50.428;8.378;2023-10-13T01:57:27;16.00;99.90
64855;DHT22;51321;50.428;8.378;2023-10-13T02:00:09;16.00;99.90
64855;DHT22;51321;50.428;8.378;2023-10-13T02:02:58;16.00;99.90
64855;DHT22;51321;50.428;8.378;2023-10-13T02:05:40;16.00;99.90
64855;DHT22;51321;50.428;8.378;2023-10-13T02:08:23;16.00;99.90
64855;DHT22;51321;50.428;8.378;2023-10-13T02:11:06;16.00;99.90
64855;DHT22;51321;50.428;8.378;2023-10-13T02:13:52;16.00;99.90
64855;DHT22;51321;50.428;8.378;2023-10-13T02:16:36;16.10;99.90
64855;DHT22;51321;50.428;8.378;2023-10-13T02:19:17;16.10;99.90
64855;DHT22;51321;50.428;8.378;2023-10-13T02:21:59;16.10;99.90
64855;DHT22;51321;50.428;8.378;2023-10-13T02:24:43;16.00;99.90
64855;DHT22;51321;50.428;8.378;2023-10-13T02:27:33;16.00;99.90
64855;DHT22;51321;50.428;8.378;2023-10-13T02:30:22;16.10;99.90
64855;DHT22;51321;50.428;8.378;2023-10-13T02:33:32;16.00;99.90
64855;DHT22;51321;50.428;8.378;2023-10-13T02:36:14;16.00;99.90
64855;DHT22;51321;50.428;8.378;2023-10-13T02:39:03;16.10;99.90
64855;DHT22;51321;50.428;8.378;2023-10-13T02:41:46;16.00;99.90
64855;DHT22;51321;50.428;8.378;2023-10-13T02:44:28;16.10;99.90
64855;DHT22;51321;50.428;8.378;2023-10-13T02:47:12;16.10;99.90
64855;DHT22;51321;50.428;8.378;2023-10-13T02:49:54;16.10;99.90
64855;DHT22;51321;50.428;8.378;2023-10-13T02:52:35;16.00;99.90
64855;DHT22;51321;50.428;8.378;2023-10-13T02:55:17;16.10;99.90
64855;DHT22;51321;50.428;8.378;2023-10-13T02:58:05;16.10;99.90
64855;DHT22;51321;50.428;8.378;2023-10-13T03:00:47;16.00;99.90
64855;DHT22;51321;50.428;8.378;2023-10-13T03:03:29;16.10;99.90
64855;DHT22;51321;50.428;8.378;2023-10-13T03:06:10;16.00;99.90
64855;DHT22;51321;50.428;8.378;2023-10-13T03:08:52;16.00;99.90
64855;DHT22;51321;50.428;8.378;2023-10-13T03:11:33;16.00;99.90
64855;DHT22;51321;50.428;8.378;2023-10-13T03:14:14;15.90;99.90
64855;DHT22;51321;50.428;8.378;2023-10-13T03:17:03;16.00;99.90
64855;DHT22;51321;50.428;8.378;2023-10-13T03:19:46;15.90;99.90
64855;DHT22;51321;50.428;8.378;2023-10-13T03:22:29;15.90;99.90
64855;DHT22;51321;50.428;8.378;2023-10-13T03:25:10;15.80;99.90
64855;DHT22;51321;50.428;8.378;2023-10-13T03:27:58;15.80;99.90
64855;DHT22;51321;50.428;8.378;2023-10-13T03:30:44;15.80;99.90
64855;DHT22;51321;50.428;8.378;2023-10-13T03:33:30;15.80;99.90
64855;DHT22;51321;50.428;8.378;2023-10-13T03:36:14;15.90;99.90
64855;DHT22;51321;50.428;8.378;2023-10-13T03:39:16;15.80;99.90
64855;DHT22;51321;50.428;8.378;2023-10-13T03:41:57;15.80;99.90
64855;DHT22;51321;50.428;8.378;2023-10-13T03:44:38;15.80;99.90
64855;DHT22;51321;50.428;8.378;2023-10-13T03:47:19;15.90;99.90
64855;DHT22;51321;50.428;8.378;2023-10-13T03:50:06;15.80;99.90
64855;DHT22;51321;50.428;8.378;2023-10-13T03:52:57;15.80;99.90
64855;DHT22;51321;50.428;8.378;2023-10-13T03:55:38;15.70;99.90
64855;DHT22;51321;50.428;8.378;2023-10-13T03:58:19;15.70;99.90
64855;DHT22;51321;50.428;8.378;2023-10-13T04:01:02;15.70;99.90
64855;DHT22;51321;50.428;8.378;2023-10-13T04:03:45;15.70;99.90
64855;DHT22;51321;50.428;8.378;2023-10-13T04:06:43;15.70;99.90
64855;DHT22;51321;50.428;8.378;2023-10-13T04:09:54;15.80;99.90
64855;DHT22;51321;50.428;8.378;2023-10-13T04:12:52;15.80;99.90
64855;DHT22;51321;50.428;8.378;2023-10-13T04:16:07;15.80;99.90
64855;DHT22;51321;50.428;8.378;2023-10-13T04:19:12;15.90;99.90
64855;DHT22;51321;50.428;8.378;2023-10-13T04:22:03;15.90;99.90
64855;DHT22;51321;50.428;8.378;2023-10-13T04:24:55;15.90;99.90
64855;DHT22;51321;50.428;8.378;2023-10-13T04:28:01;15.90;99.90
64855;DHT22;51321;50.428;8.378;2023-10-13T04:30:56;16.00;99.90
64855;DHT22;51321;50.428;8.378;2023-10-13T04:33:39;16.00;99.90
64855;DHT22;51321;50.428;8.378;2023-10-13T04:36:31;16.00;99.90
64855;DHT22;51321;50.428;8.378;2023-10-13T04:39:24;16.00;99.90
64855;DHT22;51321;50.428;8.378;2023-10-13T04:42:10;16.00;99.90
64855;DHT22;51321;50.428;8.378;2023-10-13T04:45:07;16.10;99.90
64855;DHT22;51321;50.428;8.378;2023-10-13T04:48:07;16.10;99.90
64855;DHT22;51321;50.428;8.378;2023-10-13T04:51:00;16.10;99.90
64855;DHT22;51321;50.428;8.378;2023-10-13T04:54:13;16.10;99.90
64855;DHT22;51321;50.428;8.378;2023-10-13T04:57:05;16.10;99.90
64855;DHT22;51321;50.428;8.378;2023-10-13T05:00:05;16.10;99.90
64855;DHT22;51321;50.428;8.378;2023-10-13T05:03:04;16.20;99.90
64855;DHT22;51321;50.428;8.378;2023-10-13T05:06:02;16.20;99.90
64855;DHT22;51321;50.428;8.378;2023-10-13T05:09:12;16.20;99.90
64855;DHT22;51321;50.428;8.378;2023-10-13T05:12:11;16.30;99.90
64855;DHT22;51321;50.428;8.378;2023-10-13T05:15:11;16.40;99.90
64855;DHT22;51321;50.428;8.378;2023-10-13T05:18:09;16.40;99.90
64855;DHT22;51321;50.428;8.378;2023-10-13T05:21:08;16.50;99.90
64855;DHT22;51321;50.428;8.378;2023-10-13T05:24:07;16.60;99.90
64855;DHT22;51321;50.428;8.378;2023-10-13T05:27:05;16.60;99.90
64855;DHT22;51321;50.428;8.378;2023-10-13T05:30:05;16.60;99.90
64855;DHT22;51321;50.428;8.378;2023-10-13T05:33:04;16.50;99.90
64855;DHT22;51321;50.428;8.378;2023-10-13T05:36:10;16.50;99.90
64855;DHT22;51321;50.428;8.378;2023-10-13T05:39:08;16.60;99.90
64855;DHT22;51321;50.428;8.378;2023-10-13T05:42:08;16.70;99.90
64855;DHT22;51321;50.428;8.378;2023-10-13T05:45:06;16.70;99.90
64855;DHT22;51321;50.428;8.378;2023-10-13T05:48:39;16.60;99.90
64855;DHT22;51321;50.428;8.378;2023-10-13T05:51:45;16.60;99.90
64855;DHT22;51321;50.428;8.378;2023-10-13T05:54:37;16.60;99.90
64855;DHT22;51321;50.428;8.378;2023-10-13T05:57:37;16.50;99.90
64855;DHT22;51321;50.428;8.378;2023-10-13T06:00:41;16.50;99.90
64855;DHT22;51321;50.428;8.378;2023-10-13T06:03:41;16.50;99.90
64855;DHT22;51321;50.428;8.378;2023-10-13T06:06:46;16.60;99.90
64855;DHT22;51321;50.428;8.378;2023-10-13T06:09:46;16.70;99.90
64855;DHT22;51321;50.428;8.378;2023-10-13T06:12:45;16.80;99.90
64855;DHT22;51321;50.428;8.378;2023-10-13T06:15:44;16.90;99.90
64855;DHT22;51321;50.428;8.378;2023-10-13T06:18:50;17.10;99.90
64855;DHT22;51321;50.428;8.378;2023-10-13T06:21:48;17.20;99.90
64855;DHT22;51321;50.428;8.378;2023-10-13T06:24:47;17.10;99.90
64855;DHT22;51321;50.428;8.378;2023-10-13T06:27:49;17.20;99.90
64855;DHT22;51321;50.428;8.378;2023-10-13T06:30:56;17.20;99.90
64855;DHT22;51321;50.428;8.378;2023-10-13T06:33:38;17.20;99.90
64855;DHT22;51321;50.428;8.378;2023-10-13T06:36:26;17.30;99.90
64855;DHT22;51321;50.428;8.378;2023-10-13T06:39:07;17.20;99.90
64855;DHT22;51321;50.428;8.378;2023-10-13T06:42:14;17.20;99.90
64855;DHT22;51321;50.428;8.378;2023-10-13T06:44:58;17.10;99.90
64855;DHT22;51321;50.428;8.378;2023-10-13T06:47:48;17.30;99.90
64855;DHT22;51321;50.428;8.378;2023-10-13T06:50:33;17.40;99.90
64855;DHT22;51321;50.428;8.378;2023-10-13T06:53:19;17.40;99.90
64855;DHT22;51321;50.428;8.378;2023-10-13T06:56:07;17.50;99.90
64855;DHT22;51321;50.428;8.378;2023-10-13T06:58:50;17.50;99.90
64855;DHT22;51321;50.428;8.378;2023-10-13T07:01:33;17.60;99.90
64855;DHT22;51321;50.428;8.378;2023-10-13T07:04:17;17.70;99.90
64855;DHT22;51321;50.428;8.378;2023-10-13T07:06:58;17.70;99.90
64855;DHT22;51321;50.428;8.378;2023-10-13T07:09:41;17.80;99.90
64855;DHT22;51321;50.428;8.378;2023-10-13T07:12:28;17.80;99.90
64855;DHT22;51321;50.428;8.378;2023-10-13T07:15:12;17.80;99.90
64855;DHT22;51321;50.428;8.378;2023-10-13T07:17:58;17.80;99.90
64855;DHT22;51321;50.428;8.378;2023-10-13T07:20:40;17.80;99.90
64855;DHT22;51321;50.428;8.378;2023-10-13T07:23:24;17.80;99.90
64855;DHT22;51321;50.428;8.378;2023-10-13T07:26:07;17.90;99.90
64855;DHT22;51321;50.428;8.378;2023-10-13T07:28:49;17.90;99.90
64855;DHT22;51321;50.428;8.378;2023-10-13T07:31:32;18.00;99.90
64855;DHT22;51321;50.428;8.378;2023-10-13T07:34:13;18.00;99.90
64855;DHT22;51321;50.428;8.378;2023-10-13T07:37:03;18.10;99.90
64855;DHT22;51321;50.428;8.378;2023-10-13T07:39:49;18.10;99.90
64855;DHT22;51321;50.428;8.378;2023-10-13T07:42:31;18.10;99.90
64855;DHT22;51321;50.428;8.378;2023-10-13T07:45:18;18.10;99.90
64855;DHT22;51321;50.428;8.378;2023-10-13T07:48:05;18.10;99.90
64855;DHT22;51321;50.428;8.378;2023-10-13T07:50:59;18.10;99.90
64855;DHT22;51321;50.428;8.378;2023-10-13T07:53:43;18.10;99.90
64855;DHT22;51321;50.428;8.378;2023-10-13T07:56:24;18.20;99.90
64855;DHT22;51321;50.428;8.378;2023-10-13T07:59:11;18.20;99.90
64855;DHT22;51321;50.428;8.378;2023-10-13T08:01:53;18.20;99.90
64855;DHT22;51321;50.428;8.378;2023-10-13T08:04:47;18.30;99.90
64855;DHT22;51321;50.428;8.378;2023-10-13T08:07:29;18.30;99.90
64855;DHT22;51321;50.428;8.378;2023-10-13T08:10:11;18.40;99.90
64855;DHT22;51321;50.428;8.378;2023-10-13T08:12:56;18.50;99.90
64855;DHT22;51321;50.428;8.378;2023-10-13T08:15:42;18.70;99.90
64855;DHT22;51321;50.428;8.378;2023-10-13T08:18:27;18.80;99.90
64855;DHT22;51321;50.428;8.378;2023-10-13T08:21:12;18.80;99.90
64855;DHT22;51321;50.428;8.378;2023-10-13T08:23:59;18.80;99.90
64855;DHT22;51321;50.428;8.378;2023-10-13T08:26:47;18.90;99.90
64855;DHT22;51321;50.428;8.378;2023-10-13T08:29:38;18.90;99.90
64855;DHT22;51321;50.428;8.378;2023-10-13T08:32:50;19.00;99.90
64855;DHT22;51321;50.428;8.378;2023-10-13T08:35:38;19.10;99.90
64855;DHT22;51321;50.428;8.378;2023-10-13T08:38:34;19.10;99.90
64855;DHT22;51321;50.428;8.378;2023-10-13T08:41:31;19.20;99.90
64855;DHT22;51321;50.428;8.378;2023-10-13T08:44:13;19.30;99.90
64855;DHT22;51321;50.428;8.378;2023-10-13T08:47:13;19.40;99.90
64855;DHT22;51321;50.428;8.378;2023-10-13T08:50:01;19.40;99.90
64855;DHT22;51321;50.428;8.378;2023-10-13T08:53:06;19.50;99.90
64855;DHT22;51321;50.428;8.378;2023-10-13T08:56:06;19.60;99.90
64855;DHT22;51321;50.428;8.378;2023-10-13T08:58:54;19.60;99.90
64855;DHT22;51321;50.428;8.378;2023-10-13T09:01:48;19.70;99.90
64855;DHT22;51321;50.428;8.378;2023-10-13T09:04:39;19.70;99.90
64855;DHT22;51321;50.428;8.378;2023-10-13T09:07:29;19.80;99.90
64855;DHT22;51321;50.428;8.378;2023-10-13T09:10:10;20.00;99.90
64855;DHT22;51321;50.428;8.378;2023-10-13T09:13:13;20.20;99.90
64855;DHT22;51321;50.428;8.378;2023-10-13T09:16:10;20.30;99.90
64855;DHT22;51321;50.428;8.378;2023-10-13T09:19:02;20.30;99.90
64855;DHT22;51321;50.428;8.378;2023-10-13T09:21:46;20.40;99.90
64855;DHT22;51321;50.428;8.378;2023-10-13T09:24:38;20.50;99.90
64855;DHT22;51321;50.428;8.378;2023-10-13T09:27:18;20.70;99.90
64855;DHT22;51321;50.428;8.378;2023-10-13T09:30:07;20.80;99.90
64855;DHT22;51321;50.428;8.378;2023-10-13T09:33:01;20.80;99.90
64855;DHT22;51321;50.428;8.378;2023-10-13T09:35:45;20.90;99.90
64855;DHT22;51321;50.428;8.378;2023-10-13T09:38:32;20.70;99.90
64855;DHT22;51321;50.428;8.378;2023-10-13T09:41:15;20.70;99.90
64855;DHT22;51321;50.428;8.378;2023-10-13T09:43:58;20.70;99.90
64855;DHT22;51321;50.428;8.378;2023-10-13T09:46:44;20.90;99.90
64855;DHT22;51321;50.428;8.378;2023-10-13T09:49:30;21.00;99.90
64855;DHT22;51321;50.428;8.378;2023-10-13T09:52:24;21.10;99.90
64855;DHT22;51321;50.428;8.378;2023-10-13T09:55:16;21.20;99.90
64855;DHT22;51321;50.428;8.378;2023-10-13T09:58:07;21.30;99.90
64855;DHT22;51321;50.428;8.378;2023-10-13T10:00:57;21.50;99.90
64855;DHT22;51321;50.428;8.378;2023-10-13T10:03:47;21.70;99.90
64855;DHT22;51321;50.428;8.378;2023-10-13T10:06:52;21.80;99.90
64855;DHT22;51321;50.428;8.378;2023-10-13T10:09:34;21.50;99.90
64855;DHT22;51321;50.428;8.378;2023-10-13T10:12:22;21.30;99.90
64855;DHT22;51321;50.428;8.378;2023-10-13T10:15:23;21.20;99.90
64855;DHT22;51321;50.428;8.378;2023-10-13T10:18:18;21.20;99.90
64855;DHT22;51321;50.428;8.378;2023-10-13T10:21:05;21.10;99.90
64855;DHT22;51321;50.428;8.378;2023-10-13T10:23:53;21.10;99.90
64855;DHT22;51321;50.428;8.378;2023-10-13T10:26:35;21.10;99.90
64855;DHT22;51321;50.428;8.378;2023-10-13T10:29:19;21.20;99.90
64855;DHT22;51321;50.428;8.378;2023-10-13T10:32:12;21.20;99.90
64855;DHT22;51321;50.428;8.378;2023-10-13T10:35:04;21.10;99.90
64855;DHT22;51321;50.428;8.378;2023-10-13T10:37:57;21.10;99.90
64855;DHT22;51321;50.428;8.378;2023-10-13T10:40:52;21.20;99.90
64855;DHT22;51321;50.428;8.378;2023-10-13T10:43:38;21.10;99.90
64855;DHT22;51321;50.428;8.378;2023-10-13T10:46:26;21.00;99.90
64855;DHT22;51321;50.428;8.378;2023-10-13T10:49:10;21.00;99.90
64855;DHT22;51321;50.428;8.378;2023-10-13T10:51:57;21.00;99.90
64855;DHT22;51321;50.428;8.378;2023-10-13T10:54:44;20.90;99.90
64855;DHT22;51321;50.428;8.378;2023-10-13T10:57:31;20.90;99.90
64855;DHT22;51321;50.428;8.378;2023-10-13T11:00:20;21.00;99.90
64855;DHT22;51321;50.428;8.378;2023-10-13T11:03:07;21.10;99.90
64855;DHT22;51321;50.428;8.378;2023-10-13T11:05:52;21.20;99.90
64855;DHT22;51321;50.428;8.378;2023-10-13T11:08:39;21.30;99.90
64855;DHT22;51321;50.428;8.378;2023-10-13T11:11:32;21.30;99.90
64855;DHT22;51321;50.428;8.378;2023-10-13T11:14:22;21.40;99.90
64855;DHT22;51321;50.428;8.378;2023-10-13T11:17:08;21.60;99.90
64855;DHT22;51321;50.428;8.378;2023-10-13T11:20:08;21.60;99.90
64855;DHT22;51321;50.428;8.378;2023-10-13T11:22:57;21.60;99.90
64855;DHT22;51321;50.428;8.378;2023-10-13T11:25:39;21.50;99.90
64855;DHT22;51321;50.428;8.378;2023-10-13T11:28:22;21.70;99.90
64855;DHT22;51321;50.428;8.378;2023-10-13T11:31:06;21.80;99.90
64855;DHT22;51321;50.428;8.378;2023-10-13T11:33:53;22.00;99.90
64855;DHT22;51321;50.428;8.378;2023-10-13T11:36:38;22.10;99.90
64855;DHT22;51321;50.428;8.378;2023-10-13T11:39:21;22.40;99.90
64855;DHT22;51321;50.428;8.378;2023-10-13T11:42:08;22.60;99.90
64855;DHT22;51321;50.428;8.378;2023-10-13T11:44:52;22.60;99.90
64855;DHT22;51321;50.428;8.378;2023-10-13T11:47:52;22.60;99.90
64855;DHT22;51321;50.428;8.378;2023-10-13T11:50:40;22.60;99.90
64855;DHT22;51321;50.428;8.378;2023-10-13T11:53:21;22.60;99.90
64855;DHT22;51321;50.428;8.378;2023-10-13T11:56:04;22.60;99.90
64855;DHT22;51321;50.428;8.378;2023-10-13T11:58:48;22.70;99.90
64855;DHT22;51321;50.428;8.378;2023-10-13T12:01:30;22.70;99.90
64855;DHT22;51321;50.428;8.378;2023-10-13T12:04:25;22.70;99.90
64855;DHT22;51321;50.428;8.378;2023-10-13T12:07:20;22.60;99.90
64855;DHT22;51321;50.428;8.378;2023-10-13T12:10:03;22.60;99.90
64855;DHT22;51321;50.428;8.378;2023-10-13T12:12:47;22.60;99.90
64855;DHT22;51321;50.428;8.378;2023-10-13T12:15:33;22.50;99.90
64855;DHT22;51321;50.428;8.378;2023-10-13T12:18:29;22.50;99.90
64855;DHT22;51321;50.428;8.378;2023-10-13T12:21:11;22.60;99.90
64855;DHT22;51321;50.428;8.378;2023-10-13T12:23:59;22.50;99.90
64855;DHT22;51321;50.428;8.378;2023-10-13T12:26:42;22.50;99.90
64855;DHT22;51321;50.428;8.378;2023-10-13T12:29:25;22.60;99.90
64855;DHT22;51321;50.428;8.378;2023-10-13T12:32:08;22.60;99.90
64855;DHT22;51321;50.428;8.378;2023-10-13T12:34:52;22.50;99.90
64855;DHT22;51321;50.428;8.378;2023-10-13T12:37:47;22.50;99.90
64855;DHT22;51321;50.428;8.378;2023-10-13T12:40:32;22.40;99.90
64855;DHT22;51321;50.428;8.378;2023-10-13T12:43:30;22.40;99.90
64855;DHT22;51321;50.428;8.378;2023-10-13T12:46:29;22.20;99.90
64855;DHT22;51321;50.428;8.378;2023-10-13T12:49:28;22.10;99.90
64855;DHT22;51321;50.428;8.378;2023-10-13T12:52:29;22.10;99.90
64855;DHT22;51321;50.428;8.378;2023-10-13T12:55:16;22.00;99.90
64855;DHT22;51321;50.428;8.378;2023-10-13T12:58:00;21.90;99.90
64855;DHT22;51321;50.428;8.378;2023-10-13T13:00:45;21.90;99.90
64855;DHT22;51321;50.428;8.378;2023-10-13T13:03:30;21.90;99.90
64855;DHT22;51321;50.428;8.378;2023-10-13T13:06:17;21.90;99.90
64855;DHT22;51321;50.428;8.378;2023-10-13T13:09:04;21.90;99.90
64855;DHT22;51321;50.428;8.378;2023-10-13T13:11:49;21.80;99.90
64855;DHT22;51321;50.428;8.378;2023-10-13T13:14:30;21.90;99.90
64855;DHT22;51321;50.428;8.378;2023-10-13T13:17:13;22.00;99.90
64855;DHT22;51321;50.428;8.378;2023-10-13T13:19:55;22.10;99.90
64855;DHT22;51321;50.428;8.378;2023-10-13T13:22:37;22.30;99.90
64855;DHT22;51321;50.428;8.378;2023-10-13T13:25:20;22.50;99.90
64855;DHT22;51321;50.428;8.378;2023-10-13T13:28:05;22.80;99.90
64855;DHT22;51321;50.428;8.378;2023-10-13T13:30:46;23.00;99.90
64855;DHT22;51321;50.428;8.378;2023-10-13T13:33:30;23.20;99.90
64855;DHT22;51321;50.428;8.378;2023-10-13T13:36:19;23.60;99.90
64855;DHT22;51321;50.428;8.378;2023-10-13T13:39:02;25.70;99.00
64855;DHT22;51321;50.428;8.378;2023-10-13T13:41:45;25.40;98.50
64855;DHT22;51321;50.428;8.378;2023-10-13T13:44:30;24.90;98.60
64855;DHT22;51321;50.428;8.378;2023-10-13T13:47:15;24.30;99.60
64855;DHT22;51321;50.428;8.378;2023-10-13T13:49:56;24.00;99.90
64855;DHT22;51321;50.428;8.378;2023-10-13T13:52:39;23.60;99.90
64855;DHT22;51321;50.428;8.378;2023-10-13T13:55:25;23.40;99.90
64855;DHT22;51321;50.428;8.378;2023-10-13T13:58:08;23.10;99.90
64855;DHT22;51321;50.428;8.378;2023-10-13T14:00:48;23.00;99.90
64855;DHT22;51321;50.428;8.378;2023-10-13T14:03:30;22.90;99.90
64855;DHT22;51321;50.428;8.378;2023-10-13T14:06:14;22.90;99.90
64855;DHT22;51321;50.428;8.378;2023-10-13T14:09:00;22.80;99.90
64855;DHT22;51321;50.428;8.378;2023-10-13T14:11:42;22.80;99.90
64855;DHT22;51321;50.428;8.378;2023-10-13T14:14:40;22.80;99.90
64855;DHT22;51321;50.428;8.378;2023-10-13T14:17:28;22.70;99.90
64855;DHT22;51321;50.428;8.378;2023-10-13T14:20:10;22.70;99.90
64855;DHT22;51321;50.428;8.378;2023-10-13T14:22:57;22.60;99.90
64855;DHT22;51321;50.428;8.378;2023-10-13T14:25:39;22.50;99.90
64855;DHT22;51321;50.428;8.378;2023-10-13T14:28:24;22.50;99.90
64855;DHT22;51321;50.428;8.378;2023-10-13T14:31:14;22.40;99.90
64855;DHT22;51321;50.428;8.378;2023-10-13T14:33:54;22.30;99.90
64855;DHT22;51321;50.428;8.378;2023-10-13T14:36:36;22.20;99.90
64855;DHT22;51321;50.428;8.378;2023-10-13T14:39:17;22.10;99.90
64855;DHT22;51321;50.428;8.378;2023-10-13T14:42:03;22.00;99.90
64855;DHT22;51321;50.428;8.378;2023-10-13T14:44:45;22.00;99.90
64855;DHT22;51321;50.428;8.378;2023-10-13T14:47:30;21.80;99.90
64855;DHT22;51321;50.428;8.378;2023-10-13T14:50:13;21.70;99.90
64855;DHT22;51321;50.428;8.378;2023-10-13T14:52:59;21.50;99.90
64855;DHT22;51321;50.428;8.378;2023-10-13T14:55:40;21.30;99.90
64855;DHT22;51321;50.428;8.378;2023-10-13T14:58:22;21.20;99.90
64855;DHT22;51321;50.428;8.378;2023-10-13T15:01:10;21.00;99.90
64855;DHT22;51321;50.428;8.378;2023-10-13T15:03:51;20.90;99.90
64855;DHT22;51321;50.428;8.378;2023-10-13T15:06:34;20.90;99.90
64855;DHT22;51321;50.428;8.378;2023-10-13T15:09:15;20.90;99.90
64855;DHT22;51321;50.428;8.378;2023-10-13T15:12:03;21.00;99.90
64855;DHT22;51321;50.428;8.378;2023-10-13T15:14:46;21.00;99.90
64855;DHT22;51321;50.428;8.378;2023-10-13T15:17:28;21.10;99.90
64855;DHT22;51321;50.428;8.378;2023-10-13T15:20:09;21.10;99.90
64855;DHT22;51321;50.428;8.378;2023-10-13T15:22:55;21.10;99.90
64855;DHT22;51321;50.428;8.378;2023-10-13T15:25:39;21.10;99.90
64855;DHT22;51321;50.428;8.378;2023-10-13T15:28:28;21.00;99.90
64855;DHT22;51321;50.428;8.378;2023-10-13T15:31:15;21.00;99.90
64855;DHT22;51321;50.428;8.378;2023-10-13T15:34:16;20.80;99.90
64855;DHT22;51321;50.428;8.378;2023-10-13T15:36:58;20.70;99.90
64855;DHT22;51321;50.428;8.378;2023-10-13T15:39:39;20.60;99.90
64855;DHT22;51321;50.428;8.378;2023-10-13T15:42:21;20.60;99.90
64855;DHT22;51321;50.428;8.378;2023-10-13T15:45:03;20.40;99.90
64855;DHT22;51321;50.428;8.378;2023-10-13T15:47:57;20.40;99.90
64855;DHT22;51321;50.428;8.378;2023-10-13T15:50:38;20.40;99.90
64855;DHT22;51321;50.428;8.378;2023-10-13T15:53:21;20.40;99.90
64855;DHT22;51321;50.428;8.378;2023-10-13T15:56:05;20.40;99.90
64855;DHT22;51321;50.428;8.378;2023-10-13T15:58:51;20.30;99.90
64855;DHT22;51321;50.428;8.378;2023-10-13T16:01:31;20.30;99.90
64855;DHT22;51321;50.428;8.378;2023-10-13T16:04:14;20.30;99.90
64855;DHT22;51321;50.428;8.378;2023-10-13T16:06:55;20.30;99.90
64855;DHT22;51321;50.428;8.378;2023-10-13T16:09:35;20.20;99.90
64855;DHT22;51321;50.428;8.378;2023-10-13T16:12:16;20.20;99.90
64855;DHT22;51321;50.428;8.378;2023-10-13T16:14:58;20.20;99.90
64855;DHT22;51321;50.428;8.378;2023-10-13T16:17:39;20.40;99.90
64855;DHT22;51321;50.428;8.378;2023-10-13T16:20:21;20.50;99.90
64855;DHT22;51321;50.428;8.378;2023-10-13T16:23:04;20.60;99.90
64855;DHT22;51321;50.428;8.378;2023-10-13T16:25:46;20.70;99.90
64855;DHT22;51321;50.428;8.378;2023-10-13T16:28:28;20.70;99.90
64855;DHT22;51321;50.428;8.378;2023-10-13T16:31:14;20.80;99.90
64855;DHT22;51321;50.428;8.378;2023-10-13T16:33:55;20.90;99.90
64855;DHT22;51321;50.428;8.378;2023-10-13T16:36:39;20.90;99.90
64855;DHT22;51321;50.428;8.378;2023-10-13T16:39:22;20.90;99.90
64855;DHT22;51321;50.428;8.378;2023-10-13T16:42:04;20.90;99.90
64855;DHT22;51321;50.428;8.378;2023-10-13T16:44:47;20.90;99.90
64855;DHT22;51321;50.428;8.378;2023-10-13T16:47:28;20.90;99.90
64855;DHT22;51321;50.428;8.378;2023-10-13T16:50:09;20.90;99.90
64855;DHT22;51321;50.428;8.378;2023-10-13T16:52:52;20.90;99.90
64855;DHT22;51321;50.428;8.378;2023-10-13T16:55:33;20.90;99.90
64855;DHT22;51321;50.428;8.378;2023-10-13T16:58:14;20.80;99.90
64855;DHT22;51321;50.428;8.378;2023-10-13T17:00:56;20.80;99.90
64855;DHT22;51321;50.428;8.378;2023-10-13T17:03:37;20.90;99.90
64855;DHT22;51321;50.428;8.378;2023-10-13T17:06:18;20.80;99.90
64855;DHT22;51321;50.428;8.378;2023-10-13T17:09:03;20.80;99.90
64855;DHT22;51321;50.428;8.378;2023-10-13T17:11:50;20.90;99.90
64855;DHT22;51321;50.428;8.378;2023-10-13T17:14:31;21.00;99.90
64855;DHT22;51321;50.428;8.378;2023-10-13T17:17:12;20.90;99.90
64855;DHT22;51321;50.428;8.378;2023-10-13T17:19:54;20.80;99.90
64855;DHT22;51321;50.428;8.378;2023-10-13T17:22:35;20.70;99.90
64855;DHT22;51321;50.428;8.378;2023-10-13T17:25:18;20.70;99.90
64855;DHT22;51321;50.428;8.378;2023-10-13T17:27:59;20.70;99.90
64855;DHT22;51321;50.428;8.378;2023-10-13T17:30:45;20.70;99.90
64855;DHT22;51321;50.428;8.378;2023-10-13T17:33:28;20.60;99.90
64855;DHT22;51321;50.428;8.378;2023-10-13T17:36:11;20.60;99.80
64855;DHT22;51321;50.428;8.378;2023-10-13T17:38:52;20.60;99.90